createdAt,value
2022-08-18T00:01:22.494Z,100.00
2022-08-18T00:03:57.123Z,100.00
2022-08-18T00:06:28.602Z,100.00
2022-08-18T00:08:57.393Z,100.00
2022-08-18T00:11:24.963Z,100.00
2022-08-18T00:13:52.762Z,100.00
2022-08-18T00:16:21.677Z,100.00
2022-08-18T00:18:49.189Z,100.00
2022-08-18T00:21:16.956Z,100.00
2022-08-18T00:23:44.522Z,100.00
2022-08-18T00:26:12.163Z,100.00
2022-08-18T00:28:39.699Z,100.00
2022-08-18T00:31:07.362Z,100.00
2022-08-18T00:33:36.302Z,100.00
2022-08-18T00:36:03.934Z,100.00
2022-08-18T00:38:31.476Z,100.00
2022-08-18T00:40:59.015Z,100.00
2022-08-18T00:43:32.938Z,100.00
2022-08-18T00:46:00.703Z,100.00
2022-08-18T00:48:30.015Z,100.00
2022-08-18T00:51:00.578Z,100.00
2022-08-18T00:53:30.413Z,100.00
2022-08-18T00:55:59.829Z,100.00
2022-08-18T00:58:29.999Z,100.00
2022-08-18T01:00:57.747Z,100.00
2022-08-18T01:03:25.549Z,100.00
2022-08-18T01:05:57.137Z,100.00
2022-08-18T01:08:28.842Z,100.00
2022-08-18T01:10:57.478Z,100.00
2022-08-18T01:13:27.726Z,100.00
2022-08-18T01:15:55.297Z,100.00
2022-08-18T01:18:40.570Z,100.00
2022-08-18T01:21:30.392Z,100.00
2022-08-18T01:23:59.617Z,100.00
2022-08-18T01:26:26.944Z,100.00
2022-08-18T01:28:54.922Z,100.00
2022-08-18T01:31:34.939Z,100.00
2022-08-18T01:34:02.501Z,100.00
2022-08-18T01:36:30.127Z,100.00
2022-08-18T01:38:59.108Z,100.00
2022-08-18T01:41:30.349Z,100.00
2022-08-18T01:43:59.128Z,100.00
2022-08-18T01:46:27.649Z,100.00
2022-08-18T01:48:55.220Z,100.00
2022-08-18T01:51:40.279Z,100.00
2022-08-18T01:54:11.159Z,100.00
2022-08-18T01:56:38.765Z,100.00
2022-08-18T01:59:07.116Z,100.00
2022-08-18T02:01:45.293Z,100.00
2022-08-18T02:04:34.497Z,100.00
2022-08-18T02:07:02.541Z,100.00
2022-08-18T02:09:33.525Z,100.00
2022-08-18T02:12:02.277Z,100.00
2022-08-18T02:14:31.300Z,100.00
2022-08-18T02:17:01.393Z,100.00
2022-08-18T02:19:33.297Z,100.00
2022-08-18T02:22:01.147Z,100.00
2022-08-18T02:24:29.024Z,100.00
2022-08-18T02:26:58.105Z,100.00
2022-08-18T02:29:25.654Z,100.00
2022-08-18T02:31:53.849Z,100.00
2022-08-18T02:34:21.643Z,100.00
2022-08-18T02:36:49.185Z,100.00
2022-08-18T02:39:16.729Z,100.00
2022-08-18T02:41:44.360Z,100.00
2022-08-18T02:44:13.386Z,100.00
2022-08-18T02:46:40.895Z,100.00
2022-08-18T02:49:09.068Z,100.00
2022-08-18T02:51:36.914Z,100.00
2022-08-18T02:54:09.178Z,100.00
2022-08-18T02:56:40.960Z,100.00
2022-08-18T02:59:10.901Z,100.00
2022-08-18T03:01:41.872Z,100.00
2022-08-18T03:04:10.587Z,100.00
2022-08-18T03:06:38.713Z,100.00
2022-08-18T03:09:06.864Z,100.00
2022-08-18T03:11:34.431Z,100.00
2022-08-18T03:14:01.968Z,100.00
2022-08-18T03:16:31.408Z,100.00
2022-08-18T03:19:01.100Z,100.00
2022-08-18T03:21:34.868Z,100.00
2022-08-18T03:24:03.075Z,100.00
2022-08-18T03:26:37.315Z,100.00
2022-08-18T03:29:04.893Z,100.00
2022-08-18T03:31:32.508Z,100.00
2022-08-18T03:34:01.525Z,100.00
2022-08-18T03:36:31.868Z,100.00
2022-08-18T03:39:00.347Z,100.00
2022-08-18T03:41:59.232Z,100.00
2022-08-18T03:44:16.502Z,100.00
2022-08-18T03:46:45.189Z,100.00
2022-08-18T03:49:14.426Z,100.00
2022-08-18T03:51:44.043Z,100.00
2022-08-18T03:54:13.303Z,100.00
2022-08-18T03:56:42.058Z,100.00
2022-08-18T03:59:11.153Z,100.00
2022-08-18T04:01:40.429Z,100.00
2022-08-18T04:04:09.550Z,100.00
2022-08-18T04:06:41.162Z,100.00
2022-08-18T04:09:09.628Z,100.00
2022-08-18T04:11:38.093Z,100.00
2022-08-18T04:14:05.823Z,100.00
2022-08-18T04:16:34.833Z,100.00
2022-08-18T04:19:04.343Z,100.00
2022-08-18T04:21:33.143Z,100.00
2022-08-18T04:24:04.070Z,100.00
2022-08-18T04:26:31.996Z,100.00
2022-08-18T04:29:01.036Z,100.00
2022-08-18T04:31:29.629Z,100.00
2022-08-18T04:33:58.328Z,100.00
2022-08-18T04:36:26.019Z,100.00
2022-08-18T04:38:56.388Z,100.00
2022-08-18T04:41:27.833Z,100.00
2022-08-18T04:43:55.823Z,100.00
2022-08-18T04:46:24.233Z,100.00
2022-08-18T04:48:52.675Z,100.00
2022-08-18T04:52:38.821Z,100.00
2022-08-18T04:54:08.234Z,100.00
2022-08-18T04:56:38.250Z,100.00
2022-08-18T04:59:06.624Z,100.00
2022-08-18T05:01:36.006Z,100.00
2022-08-18T05:04:03.641Z,100.00
2022-08-18T05:06:31.805Z,100.00
2022-08-18T05:09:00.214Z,100.00
2022-08-18T05:11:28.412Z,100.00
2022-08-18T05:13:59.054Z,100.00
2022-08-18T05:16:27.846Z,100.00
2022-08-18T05:18:56.042Z,100.00
2022-08-18T05:21:24.433Z,100.00
2022-08-18T05:23:52.213Z,100.00
2022-08-18T05:26:20.274Z,100.00
2022-08-18T05:28:48.575Z,100.00
2022-08-18T05:31:24.043Z,100.00
2022-08-18T05:33:52.133Z,100.00
2022-08-18T05:36:28.926Z,100.00
2022-08-18T05:39:00.516Z,100.00
2022-08-18T05:41:29.910Z,100.00
2022-08-18T05:43:58.170Z,100.00
2022-08-18T05:46:33.414Z,100.00
2022-08-18T05:49:00.998Z,100.00
2022-08-18T05:51:32.129Z,100.00
2022-08-18T05:54:17.481Z,100.00
2022-08-18T05:56:49.724Z,100.00
2022-08-18T05:59:21.237Z,100.00
2022-08-18T06:01:54.856Z,100.00
2022-08-18T06:04:27.837Z,100.00
2022-08-18T06:06:57.849Z,100.00
2022-08-18T06:09:27.081Z,100.00
2022-08-18T06:11:58.099Z,100.00
2022-08-18T06:14:26.004Z,100.00
2022-08-18T06:16:59.566Z,100.00
2022-08-18T06:19:31.264Z,100.00
2022-08-18T06:22:02.361Z,100.00
2022-08-18T06:24:34.663Z,100.00
2022-08-18T06:27:07.674Z,100.00
2022-08-18T06:29:44.359Z,100.00
2022-08-18T06:32:19.582Z,100.00
2022-08-18T06:34:56.397Z,100.00
2022-08-18T06:37:29.424Z,100.00
2022-08-18T06:39:58.219Z,100.00
2022-08-18T06:42:30.467Z,100.00
2022-08-18T06:45:01.562Z,100.00
2022-08-18T06:47:37.560Z,100.00
2022-08-18T06:50:06.754Z,100.00
2022-08-18T06:52:35.978Z,100.00
2022-08-18T06:55:06.622Z,100.00
2022-08-18T06:57:35.572Z,100.00
2022-08-18T07:00:08.094Z,100.00
2022-08-18T07:02:43.634Z,100.00
2022-08-18T07:05:19.220Z,100.00
2022-08-18T07:07:47.395Z,100.00
2022-08-18T07:10:29.835Z,100.00
2022-08-18T07:13:06.859Z,100.00
2022-08-18T07:15:34.443Z,100.00
2022-08-18T07:18:07.437Z,100.00
2022-08-18T07:20:42.623Z,100.00
2022-08-18T07:23:10.839Z,100.00
2022-08-18T07:25:40.992Z,100.00
2022-08-18T07:28:08.603Z,100.00
2022-08-18T07:30:37.804Z,100.00
2022-08-18T07:33:15.466Z,100.00
2022-08-18T07:35:45.809Z,100.00
2022-08-18T07:41:15.476Z,100.00
2022-08-18T07:43:47.307Z,100.00
2022-08-18T07:46:18.412Z,100.00
2022-08-18T07:48:47.811Z,100.00
2022-08-18T07:51:21.863Z,100.00
2022-08-18T07:53:56.446Z,100.00
2022-08-18T07:56:29.881Z,100.00
2022-08-18T07:58:59.750Z,100.00
2022-08-18T08:01:34.865Z,100.00
2022-08-18T08:04:11.281Z,100.00
2022-08-18T08:07:22.944Z,96.11
2022-08-18T08:09:52.075Z,95.85
2022-08-18T08:12:24.857Z,97.28
2022-08-18T08:15:00.419Z,97.07
2022-08-18T08:17:32.518Z,96.57
2022-08-18T08:20:15.521Z,93.46
2022-08-18T08:22:50.433Z,96.31
2022-08-18T08:25:45.365Z,94.59
2022-08-18T08:28:17.053Z,93.38
2022-08-18T08:30:47.425Z,90.59
2022-08-18T08:33:22.083Z,83.13
2022-08-18T08:35:53.339Z,83.60
2022-08-18T08:38:39.858Z,78.42
2022-08-18T08:41:13.312Z,79.08
2022-08-18T08:43:43.652Z,77.86
2022-08-18T08:46:13.741Z,79.92
2022-08-18T08:48:43.854Z,76.22
2022-08-18T08:51:18.428Z,77.96
2022-08-18T08:53:49.130Z,78.92
2022-08-18T08:56:18.202Z,77.45
2022-08-18T08:58:49.345Z,78.52
2022-08-18T09:01:25.028Z,67.53
2022-08-18T09:03:57.844Z,71.59
2022-08-18T09:06:32.183Z,69.35
2022-08-18T09:09:09.377Z,70.02
2022-08-18T09:11:50.216Z,64.15
2022-08-18T09:14:32.893Z,63.88
2022-08-18T09:17:13.110Z,62.25
2022-08-18T09:19:48.924Z,63.14
2022-08-18T09:22:27.307Z,63.00
2022-08-18T09:24:55.798Z,62.05
2022-08-18T09:27:40.025Z,62.93
2022-08-18T09:30:34.492Z,65.27
2022-08-18T09:33:18.652Z,65.64
2022-08-18T09:35:58.021Z,59.62
2022-08-18T09:38:48.694Z,58.76
2022-08-18T09:41:34.427Z,60.63
2022-08-18T09:44:21.342Z,59.93
2022-08-18T09:46:56.211Z,57.61
2022-08-18T09:49:42.371Z,63.72
2022-08-18T09:52:37.495Z,60.70
2022-08-18T09:55:27.765Z,56.68
2022-08-18T09:58:11.395Z,55.48
2022-08-18T10:00:38.975Z,58.52
2022-08-18T10:06:19.109Z,52.77
2022-08-18T10:08:56.433Z,57.60
2022-08-18T10:11:30.399Z,55.43
2022-08-18T10:14:08.333Z,55.27
2022-08-18T10:17:13.230Z,54.78
2022-08-18T10:19:39.644Z,57.39
2022-08-18T10:22:09.366Z,52.76
2022-08-18T10:24:44.315Z,53.58
2022-08-18T10:27:34.489Z,54.52
2022-08-18T10:30:05.374Z,47.51
2022-08-18T10:32:52.175Z,54.70
2022-08-18T10:35:39.830Z,54.47
2022-08-18T10:38:14.830Z,50.27
2022-08-18T10:40:44.483Z,52.48
2022-08-18T10:43:45.444Z,50.26
2022-08-18T10:46:25.268Z,55.12
2022-08-18T10:49:04.317Z,51.54
2022-08-18T10:51:59.451Z,54.66
2022-08-18T10:54:35.143Z,51.78
2022-08-18T10:57:24.047Z,50.38
2022-08-18T10:59:57.603Z,53.20
2022-08-18T11:02:40.358Z,54.22
2022-08-18T11:05:10.946Z,47.34
2022-08-18T11:07:42.980Z,50.40
2022-08-18T11:10:58.044Z,52.36
2022-08-18T11:13:11.048Z,51.15
2022-08-18T11:15:46.374Z,53.25
2022-08-18T11:18:28.973Z,52.07
2022-08-18T11:21:13.105Z,47.85
2022-08-18T11:23:41.285Z,50.76
2022-08-18T11:26:14.920Z,49.29
2022-08-18T11:28:46.046Z,49.34
2022-08-18T11:31:15.921Z,46.85
2022-08-18T11:33:47.947Z,48.94
2022-08-18T11:36:19.163Z,48.92
2022-08-18T11:38:55.528Z,49.54
2022-08-18T11:41:33.879Z,50.01
2022-08-18T11:44:18.860Z,50.52
2022-08-18T11:46:52.094Z,51.25
2022-08-18T11:49:24.486Z,51.84
2022-08-18T11:51:55.554Z,50.96
2022-08-18T11:54:24.806Z,54.61
2022-08-18T11:56:53.134Z,51.87
2022-08-18T12:02:25.408Z,52.81
2022-08-18T12:04:54.273Z,49.19
2022-08-18T12:07:28.271Z,51.23
2022-08-18T12:10:17.074Z,51.46
2022-08-18T12:12:47.991Z,51.99
2022-08-18T12:15:29.595Z,54.42
2022-08-18T12:18:25.937Z,51.26
2022-08-18T12:20:57.078Z,51.20
2022-08-18T12:23:25.191Z,50.12
2022-08-18T12:25:52.701Z,52.37
2022-08-18T12:28:22.359Z,53.72
2022-08-18T12:30:56.342Z,50.29
2022-08-18T12:33:34.472Z,51.46
2022-08-18T12:36:15.788Z,51.65
2022-08-18T12:38:52.035Z,52.31
2022-08-18T12:41:24.170Z,50.19
2022-08-18T12:43:59.116Z,50.98
2022-08-18T12:46:27.875Z,50.52
2022-08-18T12:48:57.096Z,48.80
2022-08-18T12:51:30.641Z,50.27
2022-08-18T12:53:59.978Z,50.55
2022-08-18T12:56:30.435Z,50.92
2022-08-18T12:58:58.813Z,52.28
2022-08-18T13:01:28.452Z,52.75
2022-08-18T13:04:10.876Z,53.21
2022-08-18T13:06:54.168Z,51.74
2022-08-18T13:09:42.931Z,53.66
2022-08-18T13:12:17.237Z,54.91
2022-08-18T13:14:45.335Z,55.23
2022-08-18T13:17:32.048Z,54.88
2022-08-18T13:20:02.059Z,55.01
2022-08-18T13:22:32.272Z,53.61
2022-08-18T13:25:00.574Z,52.81
2022-08-18T13:27:33.501Z,54.12
2022-08-18T13:30:16.838Z,55.33
2022-08-18T13:32:58.969Z,53.62
2022-08-18T13:35:38.163Z,53.61
2022-08-18T13:38:14.281Z,53.21
2022-08-18T13:40:48.318Z,53.02
2022-08-18T13:43:17.471Z,54.92
2022-08-18T13:45:48.044Z,54.42
2022-08-18T13:48:20.743Z,53.70
2022-08-18T13:50:52.727Z,54.12
2022-08-18T13:53:21.900Z,54.55
2022-08-18T13:55:49.965Z,53.22
2022-08-18T13:58:20.728Z,54.42
2022-08-18T14:00:51.606Z,56.47
2022-08-18T14:03:42.478Z,56.17
2022-08-18T14:06:09.591Z,56.03
2022-08-18T14:08:40.930Z,54.83
2022-08-18T14:11:09.586Z,56.08
2022-08-18T14:13:38.075Z,53.37
2022-08-18T14:16:06.259Z,52.15
2022-08-18T14:18:39.073Z,54.46
2022-08-18T14:21:24.553Z,55.09
2022-08-18T14:24:14.189Z,58.21
2022-08-18T14:26:51.366Z,57.29
2022-08-18T14:29:46.891Z,60.34
2022-08-18T14:32:07.258Z,60.24
2022-08-18T14:34:35.014Z,59.39
2022-08-18T14:37:03.696Z,60.95
2022-08-18T14:39:32.651Z,59.73
2022-08-18T14:42:03.001Z,60.23
2022-08-18T14:44:32.537Z,60.90
2022-08-18T14:47:00.660Z,60.72
2022-08-18T14:49:31.311Z,60.20
2022-08-18T14:51:59.261Z,61.18
2022-08-18T14:54:28.529Z,61.98
2022-08-18T14:56:59.831Z,61.23
2022-08-18T14:59:28.456Z,61.33
2022-08-18T15:01:56.794Z,61.81
2022-08-18T15:04:24.698Z,63.72
2022-08-18T15:06:56.161Z,63.73
2022-08-18T15:09:27.312Z,64.57
2022-08-18T15:11:56.176Z,64.01
2022-08-18T15:14:26.758Z,65.04
2022-08-18T15:17:00.928Z,63.68
2022-08-18T15:19:59.103Z,64.13
2022-08-18T15:22:33.473Z,63.74
2022-08-18T15:25:18.542Z,63.75
2022-08-18T15:27:52.392Z,63.97
2022-08-18T15:30:23.104Z,63.25
2022-08-18T15:32:51.271Z,63.67
2022-08-18T15:35:19.650Z,64.48
2022-08-18T15:37:48.647Z,64.63
2022-08-18T15:40:21.607Z,64.08
2022-08-18T15:43:01.457Z,63.16
2022-08-18T15:45:35.308Z,63.67
2022-08-18T15:48:03.651Z,63.66
2022-08-18T15:50:31.847Z,63.30
2022-08-18T15:53:00.722Z,62.12
2022-08-18T15:55:35.745Z,63.90
2022-08-18T15:58:03.602Z,64.41
2022-08-18T16:00:42.195Z,64.23
2022-08-18T16:03:12.105Z,63.80
2022-08-18T16:05:41.735Z,63.34
2022-08-18T16:08:11.790Z,64.03
2022-08-18T16:10:40.454Z,63.41
2022-08-18T16:13:08.601Z,63.89
2022-08-18T16:15:37.999Z,65.08
2022-08-18T16:18:09.498Z,64.51
2022-08-18T16:20:37.498Z,64.37
2022-08-18T16:23:05.395Z,65.01
2022-08-18T16:25:33.316Z,64.99
2022-08-18T16:28:01.453Z,64.62
2022-08-18T16:30:29.424Z,65.15
2022-08-18T16:33:02.689Z,63.66
2022-08-18T16:35:32.192Z,64.41
2022-08-18T16:38:03.259Z,65.19
2022-08-18T16:40:31.562Z,65.66
2022-08-18T16:43:00.589Z,65.97
2022-08-18T16:45:28.387Z,67.60
2022-08-18T16:47:56.454Z,67.72
2022-08-18T16:50:25.377Z,67.55
2022-08-18T16:52:54.429Z,68.01
2022-08-18T16:55:22.037Z,68.45
2022-08-18T16:58:07.295Z,68.27
2022-08-18T17:00:55.006Z,69.01
2022-08-18T17:03:40.933Z,68.94
2022-08-18T17:06:09.517Z,69.74
2022-08-18T17:08:39.039Z,70.14
2022-08-18T17:11:08.551Z,69.79
2022-08-18T17:13:36.711Z,70.41
2022-08-18T17:16:04.641Z,71.67
2022-08-18T17:18:32.240Z,71.99
2022-08-18T17:21:02.458Z,71.79
2022-08-18T17:23:30.050Z,72.28
2022-08-18T17:25:59.795Z,72.28
2022-08-18T17:28:30.758Z,71.79
2022-08-18T17:31:02.667Z,72.39
2022-08-18T17:33:33.160Z,72.33
2022-08-18T17:36:03.997Z,73.53
2022-08-18T17:38:36.403Z,74.02
2022-08-18T17:41:07.291Z,74.46
2022-08-18T17:43:35.958Z,75.24
2022-08-18T17:46:06.153Z,75.89
2022-08-18T17:48:36.056Z,76.52
2022-08-18T17:51:25.022Z,76.46
2022-08-18T17:53:52.563Z,77.51
2022-08-18T17:56:24.282Z,78.28
2022-08-18T17:59:45.876Z,78.83
2022-08-18T18:02:09.472Z,79.12
2022-08-18T18:04:56.193Z,79.85
2022-08-18T18:07:25.157Z,80.38
2022-08-18T18:09:56.968Z,80.55
2022-08-18T18:12:28.417Z,81.04
2022-08-18T18:14:56.503Z,81.87
2022-08-18T18:17:26.368Z,82.29
2022-08-18T18:19:56.472Z,82.71
2022-08-18T18:22:25.992Z,82.93
2022-08-18T18:24:54.903Z,83.14
2022-08-18T18:27:32.001Z,83.52
2022-08-18T18:30:01.997Z,83.77
2022-08-18T18:32:31.201Z,84.58
2022-08-18T18:35:03.693Z,84.89
2022-08-18T18:37:33.071Z,85.42
2022-08-18T18:40:02.326Z,85.89
2022-08-18T18:42:32.794Z,86.31
2022-08-18T18:45:01.398Z,86.67
2022-08-18T18:47:34.851Z,86.91
2022-08-18T18:50:07.162Z,87.56
2022-08-18T18:52:42.194Z,88.17
2022-08-18T18:55:14.739Z,88.33
2022-08-18T18:57:49.199Z,88.81
2022-08-18T19:00:20.881Z,89.60
2022-08-18T19:03:03.691Z,90.23
2022-08-18T19:05:35.244Z,90.55
2022-08-18T19:08:07.972Z,90.72
2022-08-18T19:10:37.517Z,91.09
2022-08-18T19:13:10.521Z,91.54
2022-08-18T19:15:40.120Z,91.88
2022-08-18T19:18:22.981Z,92.08
2022-08-18T19:22:01.948Z,92.79
2022-08-18T19:23:44.809Z,93.30
2022-08-18T19:26:13.565Z,93.84
2022-08-18T19:29:12.133Z,94.27
2022-08-18T19:31:36.183Z,94.74
2022-08-18T19:34:08.530Z,94.94
2022-08-18T19:36:40.504Z,95.27
2022-08-18T19:39:13.994Z,96.02
2022-08-18T19:41:45.778Z,96.29
2022-08-18T19:44:22.020Z,96.45
2022-08-18T19:46:51.262Z,96.92
2022-08-18T19:49:23.466Z,97.40
2022-08-18T19:51:53.931Z,98.09
2022-08-18T19:54:38.843Z,98.31
2022-08-18T19:57:13.697Z,98.54
2022-08-18T19:59:57.244Z,99.21
2022-08-18T20:02:33.929Z,99.43
2022-08-18T20:05:10.108Z,99.72
2022-08-18T20:07:54.870Z,100.00
2022-08-18T20:10:32.475Z,100.00
2022-08-18T20:13:14.827Z,100.00
2022-08-18T20:15:59.073Z,100.00
2022-08-18T20:18:35.830Z,100.00
2022-08-18T20:21:22.064Z,100.00
2022-08-18T20:23:58.700Z,100.00
2022-08-18T20:26:41.927Z,100.00
2022-08-18T20:29:11.445Z,100.00
2022-08-18T20:31:46.168Z,100.00
2022-08-18T20:34:15.212Z,100.00
2022-08-18T20:36:43.758Z,100.00
2022-08-18T20:39:32.183Z,100.00
2022-08-18T20:41:59.826Z,100.00
2022-08-18T20:44:38.542Z,100.00
2022-08-18T20:47:21.059Z,100.00
2022-08-18T20:49:55.708Z,100.00
2022-08-18T20:52:29.765Z,100.00
2022-08-18T20:55:11.356Z,100.00
2022-08-18T20:57:39.927Z,100.00
2022-08-18T21:00:13.308Z,100.00
2022-08-18T21:02:41.688Z,100.00
2022-08-18T21:05:27.586Z,100.00
2022-08-18T21:08:03.371Z,100.00
2022-08-18T21:10:31.462Z,100.00
2022-08-18T21:12:59.933Z,100.00
2022-08-18T21:15:29.061Z,100.00
2022-08-18T21:18:01.420Z,100.00
2022-08-18T21:20:31.404Z,100.00
2022-08-18T21:23:04.245Z,100.00
2022-08-18T21:25:33.507Z,100.00
2022-08-18T21:28:02.307Z,100.00
2022-08-18T21:30:30.476Z,100.00
2022-08-18T21:32:58.063Z,100.00
2022-08-18T21:35:28.655Z,100.00
2022-08-18T21:37:58.532Z,100.00
2022-08-18T21:40:30.573Z,100.00
2022-08-18T21:42:59.437Z,100.00
2022-08-18T21:45:29.599Z,100.00
2022-08-18T21:47:58.842Z,100.00
2022-08-18T21:50:27.680Z,100.00
2022-08-18T21:52:57.159Z,100.00
2022-08-18T21:55:30.172Z,100.00
2022-08-18T21:58:03.105Z,100.00
2022-08-18T22:00:32.977Z,100.00
2022-08-18T22:03:12.547Z,100.00
2022-08-18T22:05:55.082Z,100.00
2022-08-18T22:08:28.174Z,100.00
2022-08-18T22:11:59.657Z,100.00
2022-08-18T22:14:14.019Z,100.00
2022-08-18T22:16:43.421Z,100.00
2022-08-18T22:19:13.032Z,100.00
2022-08-18T22:21:43.332Z,100.00
2022-08-18T22:24:19.479Z,100.00
2022-08-18T22:26:50.393Z,100.00
2022-08-18T22:29:32.482Z,100.00
2022-08-18T22:32:01.768Z,100.00
2022-08-18T22:34:31.893Z,100.00
2022-08-18T22:37:01.028Z,100.00
2022-08-18T22:39:30.545Z,100.00
2022-08-18T22:42:00.076Z,100.00
2022-08-18T22:44:28.320Z,100.00
2022-08-18T22:46:55.906Z,100.00
2022-08-18T22:49:24.186Z,100.00
2022-08-18T22:51:53.230Z,100.00
2022-08-18T22:54:21.508Z,100.00
2022-08-18T22:56:53.916Z,100.00
2022-08-18T22:59:26.916Z,100.00
2022-08-18T23:01:55.468Z,100.00
2022-08-18T23:04:25.424Z,100.00
2022-08-18T23:06:53.722Z,100.00
2022-08-18T23:09:22.483Z,100.00
2022-08-18T23:11:50.371Z,100.00
2022-08-18T23:14:17.933Z,100.00
2022-08-18T23:16:47.078Z,100.00
2022-08-18T23:19:15.237Z,100.00
2022-08-18T23:21:42.821Z,100.00
2022-08-18T23:24:11.491Z,100.00
2022-08-18T23:26:40.336Z,100.00
2022-08-18T23:29:09.332Z,100.00
2022-08-18T23:31:36.894Z,100.00
2022-08-18T23:34:06.186Z,100.00
2022-08-18T23:36:34.376Z,100.00
2022-08-18T23:39:02.066Z,100.00
2022-08-18T23:41:29.637Z,100.00
2022-08-18T23:43:59.740Z,100.00
2022-08-18T23:46:28.845Z,100.00
2022-08-18T23:48:57.481Z,100.00
2022-08-18T23:51:27.832Z,100.00
2022-08-18T23:53:56.695Z,100.00
2022-08-18T23:56:24.479Z,100.00
2022-08-18T23:58:52.060Z,100.00
